Yessentuki, Russia
Current Conditions -  °F | °C
As of 6:00 PM on Thursday 30 Oct 2014 (Local Time) from URMM Reporting Station
Broken Clouds Broken Clouds  
Wind Chill: 41°   Ceiling: 2000
Heat Index: 46°   Visibility: 6mi
Dew Point: 43°   Wind: 11mph
Humidity: 87%   Direction: 100°E
Pressure: 30.09"   Gusts: NA
Location:  44.04°N, 42.85°E
Report Text: URMM 301500Z 10005MPS 9999 BKN020 08/06 Q1019 R12/CLRD70 NOSIGRMK MT OBSC QFE736/0982
Loading
Personal Weather Stations






























Interactive Weather Map
Tropical Storm Tracking
New forecast layout! Learn more

10-Day Weather Forecast

Advertisements
Track Severe Weather on mobile